sensor_id;sensor_type;location;lat;lon;timestamp;P1;durP1;ratioP1;P2;durP2;ratioP2
10851;SDS011;5479;52.046;6.314;2023-04-24T00:00:05;9.10;;;7.50;;
10851;SDS011;5479;52.046;6.314;2023-04-24T00:02:38;9.23;;;8.00;;
10851;SDS011;5479;52.046;6.314;2023-04-24T00:05:06;9.53;;;8.53;;
10851;SDS011;5479;52.046;6.314;2023-04-24T00:07:35;10.63;;;9.13;;
10851;SDS011;5479;52.046;6.314;2023-04-24T00:10:05;10.33;;;9.23;;
10851;SDS011;5479;52.046;6.314;2023-04-24T00:12:33;10.93;;;9.50;;
10851;SDS011;5479;52.046;6.314;2023-04-24T00:15:02;11.67;;;9.47;;
10851;SDS011;5479;52.046;6.314;2023-04-24T00:17:31;11.50;;;10.03;;
10851;SDS011;5479;52.046;6.314;2023-04-24T00:20:00;12.33;;;9.80;;
10851;SDS011;5479;52.046;6.314;2023-04-24T00:22:33;11.17;;;9.97;;
10851;SDS011;5479;52.046;6.314;2023-04-24T00:25:01;11.83;;;9.83;;
10851;SDS011;5479;52.046;6.314;2023-04-24T00:27:30;14.43;;;11.63;;
10851;SDS011;5479;52.046;6.314;2023-04-24T00:29:59;13.00;;;11.50;;
10851;SDS011;5479;52.046;6.314;2023-04-24T00:32:27;13.87;;;11.57;;
10851;SDS011;5479;52.046;6.314;2023-04-24T00:34:55;13.90;;;12.40;;
10851;SDS011;5479;52.046;6.314;2023-04-24T00:37:23;15.57;;;13.37;;
10851;SDS011;5479;52.046;6.314;2023-04-24T00:39:51;15.53;;;13.30;;
10851;SDS011;5479;52.046;6.314;2023-04-24T00:42:19;15.60;;;13.40;;
10851;SDS011;5479;52.046;6.314;2023-04-24T00:44:49;16.27;;;13.40;;
10851;SDS011;5479;52.046;6.314;2023-04-24T00:47:17;17.33;;;14.43;;
10851;SDS011;5479;52.046;6.314;2023-04-24T00:49:48;17.27;;;14.03;;
10851;SDS011;5479;52.046;6.314;2023-04-24T00:52:16;16.73;;;14.90;;
10851;SDS011;5479;52.046;6.314;2023-04-24T00:54:44;18.03;;;15.30;;
10851;SDS011;5479;52.046;6.314;2023-04-24T00:57:12;18.27;;;14.83;;
10851;SDS011;5479;52.046;6.314;2023-04-24T00:59:41;17.73;;;15.10;;
10851;SDS011;5479;52.046;6.314;2023-04-24T01:02:11;17.43;;;15.30;;
10851;SDS011;5479;52.046;6.314;2023-04-24T01:04:40;17.20;;;14.93;;
10851;SDS011;5479;52.046;6.314;2023-04-24T01:07:08;18.83;;;15.47;;
10851;SDS011;5479;52.046;6.314;2023-04-24T01:09:37;18.03;;;14.80;;
10851;SDS011;5479;52.046;6.314;2023-04-24T01:12:08;18.20;;;15.30;;
10851;SDS011;5479;52.046;6.314;2023-04-24T01:14:36;19.20;;;15.90;;
10851;SDS011;5479;52.046;6.314;2023-04-24T01:17:04;17.57;;;15.33;;
10851;SDS011;5479;52.046;6.314;2023-04-24T01:19:34;18.63;;;15.27;;
10851;SDS011;5479;52.046;6.314;2023-04-24T01:22:08;17.90;;;14.47;;
10851;SDS011;5479;52.046;6.314;2023-04-24T01:24:38;16.00;;;13.17;;
10851;SDS011;5479;52.046;6.314;2023-04-24T01:27:06;13.67;;;11.70;;
10851;SDS011;5479;52.046;6.314;2023-04-24T01:29:37;14.80;;;12.33;;
10851;SDS011;5479;52.046;6.314;2023-04-24T01:32:06;14.70;;;12.33;;
10851;SDS011;5479;52.046;6.314;2023-04-24T01:34:35;14.80;;;11.07;;
10851;SDS011;5479;52.046;6.314;2023-04-24T01:37:03;14.30;;;11.43;;
10851;SDS011;5479;52.046;6.314;2023-04-24T01:39:32;14.43;;;10.93;;
10851;SDS011;5479;52.046;6.314;2023-04-24T01:42:01;15.20;;;11.90;;
10851;SDS011;5479;52.046;6.314;2023-04-24T01:44:29;15.97;;;12.63;;
10851;SDS011;5479;52.046;6.314;2023-04-24T01:46:58;14.87;;;12.03;;
10851;SDS011;5479;52.046;6.314;2023-04-24T01:49:27;15.37;;;12.70;;
10851;SDS011;5479;52.046;6.314;2023-04-24T01:51:55;15.37;;;12.60;;
10851;SDS011;5479;52.046;6.314;2023-04-24T01:54:23;16.90;;;13.17;;
10851;SDS011;5479;52.046;6.314;2023-04-24T01:56:53;16.40;;;12.77;;
10851;SDS011;5479;52.046;6.314;2023-04-24T01:59:21;16.53;;;13.37;;
10851;SDS011;5479;52.046;6.314;2023-04-24T02:01:50;16.90;;;12.80;;
10851;SDS011;5479;52.046;6.314;2023-04-24T02:04:18;16.90;;;13.20;;
10851;SDS011;5479;52.046;6.314;2023-04-24T02:06:46;17.53;;;13.23;;
10851;SDS011;5479;52.046;6.314;2023-04-24T02:09:14;17.17;;;13.70;;
10851;SDS011;5479;52.046;6.314;2023-04-24T02:11:42;16.30;;;13.10;;
10851;SDS011;5479;52.046;6.314;2023-04-24T02:14:12;19.53;;;14.53;;
10851;SDS011;5479;52.046;6.314;2023-04-24T02:16:40;17.63;;;14.23;;
10851;SDS011;5479;52.046;6.314;2023-04-24T02:19:08;18.73;;;14.23;;
10851;SDS011;5479;52.046;6.314;2023-04-24T02:21:36;18.27;;;14.07;;
10851;SDS011;5479;52.046;6.314;2023-04-24T02:24:04;18.23;;;14.70;;
10851;SDS011;5479;52.046;6.314;2023-04-24T02:26:32;18.10;;;14.40;;
10851;SDS011;5479;52.046;6.314;2023-04-24T02:29:00;20.77;;;16.43;;
10851;SDS011;5479;52.046;6.314;2023-04-24T02:31:30;19.33;;;15.80;;
10851;SDS011;5479;52.046;6.314;2023-04-24T02:33:58;21.73;;;16.87;;
10851;SDS011;5479;52.046;6.314;2023-04-24T02:36:27;21.33;;;16.60;;
10851;SDS011;5479;52.046;6.314;2023-04-24T02:38:55;20.40;;;16.57;;
10851;SDS011;5479;52.046;6.314;2023-04-24T02:41:22;20.13;;;16.47;;
10851;SDS011;5479;52.046;6.314;2023-04-24T02:43:51;20.87;;;16.93;;
10851;SDS011;5479;52.046;6.314;2023-04-24T02:46:18;22.57;;;16.30;;
10851;SDS011;5479;52.046;6.314;2023-04-24T02:48:48;21.37;;;17.57;;
10851;SDS011;5479;52.046;6.314;2023-04-24T02:51:15;19.27;;;16.17;;
10851;SDS011;5479;52.046;6.314;2023-04-24T02:53:43;19.93;;;16.27;;
10851;SDS011;5479;52.046;6.314;2023-04-24T02:56:11;18.80;;;15.93;;
10851;SDS011;5479;52.046;6.314;2023-04-24T02:58:39;17.70;;;14.50;;
10851;SDS011;5479;52.046;6.314;2023-04-24T03:01:08;15.93;;;13.37;;
10851;SDS011;5479;52.046;6.314;2023-04-24T03:03:37;16.63;;;14.10;;
10851;SDS011;5479;52.046;6.314;2023-04-24T03:06:06;16.70;;;13.20;;
10851;SDS011;5479;52.046;6.314;2023-04-24T03:08:35;18.10;;;14.20;;
10851;SDS011;5479;52.046;6.314;2023-04-24T03:11:03;15.57;;;13.17;;
10851;SDS011;5479;52.046;6.314;2023-04-24T03:13:31;17.10;;;13.87;;
10851;SDS011;5479;52.046;6.314;2023-04-24T03:15:59;17.00;;;14.77;;
10851;SDS011;5479;52.046;6.314;2023-04-24T03:18:28;16.77;;;14.30;;
10851;SDS011;5479;52.046;6.314;2023-04-24T03:20:56;16.67;;;14.87;;
10851;SDS011;5479;52.046;6.314;2023-04-24T03:23:26;18.03;;;15.23;;
10851;SDS011;5479;52.046;6.314;2023-04-24T03:28:27;18.80;;;15.67;;
10851;SDS011;5479;52.046;6.314;2023-04-24T03:30:55;18.33;;;15.87;;
10851;SDS011;5479;52.046;6.314;2023-04-24T03:33:23;20.10;;;15.73;;
10851;SDS011;5479;52.046;6.314;2023-04-24T03:35:51;20.97;;;16.90;;
10851;SDS011;5479;52.046;6.314;2023-04-24T03:38:18;23.63;;;17.73;;
10851;SDS011;5479;52.046;6.314;2023-04-24T03:40:48;20.30;;;17.60;;
10851;SDS011;5479;52.046;6.314;2023-04-24T03:43:16;21.60;;;17.87;;
10851;SDS011;5479;52.046;6.314;2023-04-24T03:45:43;23.63;;;18.53;;
10851;SDS011;5479;52.046;6.314;2023-04-24T03:48:11;22.07;;;19.33;;
10851;SDS011;5479;52.046;6.314;2023-04-24T03:50:39;23.87;;;19.37;;
10851;SDS011;5479;52.046;6.314;2023-04-24T03:53:10;24.70;;;20.97;;
10851;SDS011;5479;52.046;6.314;2023-04-24T03:55:38;25.23;;;20.63;;
10851;SDS011;5479;52.046;6.314;2023-04-24T03:58:07;25.43;;;20.57;;
10851;SDS011;5479;52.046;6.314;2023-04-24T04:00:37;25.13;;;21.03;;
10851;SDS011;5479;52.046;6.314;2023-04-24T04:03:06;29.13;;;22.93;;
10851;SDS011;5479;52.046;6.314;2023-04-24T04:05:34;27.33;;;23.20;;
10851;SDS011;5479;52.046;6.314;2023-04-24T04:08:02;31.03;;;24.40;;
10851;SDS011;5479;52.046;6.314;2023-04-24T04:10:30;30.83;;;24.03;;
10851;SDS011;5479;52.046;6.314;2023-04-24T04:12:58;30.70;;;25.40;;
10851;SDS011;5479;52.046;6.314;2023-04-24T04:15:27;31.93;;;25.57;;
10851;SDS011;5479;52.046;6.314;2023-04-24T04:17:55;31.47;;;24.97;;
10851;SDS011;5479;52.046;6.314;2023-04-24T04:20:23;31.83;;;25.77;;
10851;SDS011;5479;52.046;6.314;2023-04-24T04:22:51;34.47;;;26.17;;
10851;SDS011;5479;52.046;6.314;2023-04-24T04:25:22;31.53;;;26.77;;
10851;SDS011;5479;52.046;6.314;2023-04-24T04:27:50;33.77;;;25.57;;
10851;SDS011;5479;52.046;6.314;2023-04-24T04:30:20;32.20;;;26.27;;
10851;SDS011;5479;52.046;6.314;2023-04-24T04:32:49;32.20;;;25.50;;
10851;SDS011;5479;52.046;6.314;2023-04-24T04:35:17;31.73;;;25.10;;
10851;SDS011;5479;52.046;6.314;2023-04-24T04:37:46;32.10;;;24.67;;
10851;SDS011;5479;52.046;6.314;2023-04-24T04:40:14;31.40;;;25.53;;
10851;SDS011;5479;52.046;6.314;2023-04-24T04:42:42;33.53;;;25.90;;
10851;SDS011;5479;52.046;6.314;2023-04-24T04:45:13;31.27;;;24.17;;
10851;SDS011;5479;52.046;6.314;2023-04-24T04:47:43;30.73;;;24.50;;
10851;SDS011;5479;52.046;6.314;2023-04-24T04:50:15;29.50;;;24.00;;
10851;SDS011;5479;52.046;6.314;2023-04-24T04:52:46;30.23;;;25.20;;
10851;SDS011;5479;52.046;6.314;2023-04-24T04:55:14;28.77;;;23.73;;
10851;SDS011;5479;52.046;6.314;2023-04-24T04:57:44;30.53;;;23.43;;
10851;SDS011;5479;52.046;6.314;2023-04-24T05:00:12;27.47;;;22.47;;
10851;SDS011;5479;52.046;6.314;2023-04-24T05:02:42;30.90;;;22.97;;
10851;SDS011;5479;52.046;6.314;2023-04-24T05:05:09;27.50;;;22.00;;
10851;SDS011;5479;52.046;6.314;2023-04-24T05:07:39;30.13;;;22.90;;
10851;SDS011;5479;52.046;6.314;2023-04-24T05:10:09;27.30;;;22.10;;
10851;SDS011;5479;52.046;6.314;2023-04-24T05:12:37;27.40;;;21.30;;
10851;SDS011;5479;52.046;6.314;2023-04-24T05:15:06;25.73;;;20.93;;
10851;SDS011;5479;52.046;6.314;2023-04-24T05:17:35;27.10;;;21.17;;
10851;SDS011;5479;52.046;6.314;2023-04-24T05:20:06;26.47;;;21.07;;
10851;SDS011;5479;52.046;6.314;2023-04-24T05:22:38;27.07;;;21.73;;
10851;SDS011;5479;52.046;6.314;2023-04-24T05:25:07;26.90;;;20.33;;
10851;SDS011;5479;52.046;6.314;2023-04-24T05:27:38;26.63;;;21.10;;
10851;SDS011;5479;52.046;6.314;2023-04-24T05:30:08;26.47;;;20.90;;
10851;SDS011;5479;52.046;6.314;2023-04-24T05:32:39;25.30;;;20.23;;
10851;SDS011;5479;52.046;6.314;2023-04-24T05:35:07;27.10;;;20.53;;
10851;SDS011;5479;52.046;6.314;2023-04-24T05:37:35;25.70;;;20.57;;
10851;SDS011;5479;52.046;6.314;2023-04-24T05:40:06;27.10;;;20.40;;
10851;SDS011;5479;52.046;6.314;2023-04-24T05:42:36;25.03;;;20.33;;
10851;SDS011;5479;52.046;6.314;2023-04-24T05:45:05;24.40;;;19.80;;
10851;SDS011;5479;52.046;6.314;2023-04-24T05:47:34;22.70;;;19.53;;
10851;SDS011;5479;52.046;6.314;2023-04-24T05:50:03;26.33;;;19.63;;
10851;SDS011;5479;52.046;6.314;2023-04-24T05:52:32;24.07;;;19.00;;
10851;SDS011;5479;52.046;6.314;2023-04-24T05:55:00;24.63;;;18.30;;
10851;SDS011;5479;52.046;6.314;2023-04-24T05:57:30;23.27;;;18.13;;
10851;SDS011;5479;52.046;6.314;2023-04-24T05:59:58;22.27;;;18.33;;
10851;SDS011;5479;52.046;6.314;2023-04-24T06:02:27;23.10;;;18.30;;
10851;SDS011;5479;52.046;6.314;2023-04-24T06:04:58;21.17;;;16.97;;
10851;SDS011;5479;52.046;6.314;2023-04-24T06:07:27;19.40;;;16.57;;
10851;SDS011;5479;52.046;6.314;2023-04-24T06:09:55;19.60;;;16.40;;
10851;SDS011;5479;52.046;6.314;2023-04-24T06:12:29;19.57;;;16.57;;
10851;SDS011;5479;52.046;6.314;2023-04-24T06:14:58;20.13;;;15.57;;
10851;SDS011;5479;52.046;6.314;2023-04-24T06:17:28;22.73;;;15.57;;
10851;SDS011;5479;52.046;6.314;2023-04-24T06:19:56;18.83;;;15.63;;
10851;SDS011;5479;52.046;6.314;2023-04-24T06:22:26;16.93;;;13.70;;
10851;SDS011;5479;52.046;6.314;2023-04-24T06:24:55;14.87;;;12.70;;
10851;SDS011;5479;52.046;6.314;2023-04-24T06:27:23;15.83;;;13.47;;
10851;SDS011;5479;52.046;6.314;2023-04-24T06:29:52;15.63;;;11.97;;
10851;SDS011;5479;52.046;6.314;2023-04-24T06:32:22;14.47;;;12.17;;
10851;SDS011;5479;52.046;6.314;2023-04-24T06:34:53;15.50;;;12.33;;
10851;SDS011;5479;52.046;6.314;2023-04-24T06:37:21;16.77;;;13.17;;
10851;SDS011;5479;52.046;6.314;2023-04-24T06:39:50;16.60;;;13.30;;
10851;SDS011;5479;52.046;6.314;2023-04-24T06:42:18;15.50;;;13.10;;
10851;SDS011;5479;52.046;6.314;2023-04-24T06:44:48;17.03;;;13.10;;
10851;SDS011;5479;52.046;6.314;2023-04-24T06:47:17;14.63;;;12.70;;
10851;SDS011;5479;52.046;6.314;2023-04-24T06:49:45;16.17;;;12.90;;
10851;SDS011;5479;52.046;6.314;2023-04-24T06:52:13;17.50;;;13.00;;
10851;SDS011;5479;52.046;6.314;2023-04-24T06:54:42;16.50;;;12.57;;
10851;SDS011;5479;52.046;6.314;2023-04-24T06:57:12;15.67;;;12.53;;
10851;SDS011;5479;52.046;6.314;2023-04-24T06:59:53;16.17;;;13.03;;
10851;SDS011;5479;52.046;6.314;2023-04-24T07:02:23;17.13;;;12.83;;
10851;SDS011;5479;52.046;6.314;2023-04-24T07:04:51;18.17;;;12.43;;
10851;SDS011;5479;52.046;6.314;2023-04-24T07:07:19;16.30;;;12.20;;
10851;SDS011;5479;52.046;6.314;2023-04-24T07:09:47;14.73;;;12.27;;
10851;SDS011;5479;52.046;6.314;2023-04-24T07:12:15;15.27;;;12.73;;
10851;SDS011;5479;52.046;6.314;2023-04-24T07:14:43;16.57;;;12.60;;
10851;SDS011;5479;52.046;6.314;2023-04-24T07:17:11;16.47;;;12.70;;
10851;SDS011;5479;52.046;6.314;2023-04-24T07:19:42;15.63;;;11.70;;
10851;SDS011;5479;52.046;6.314;2023-04-24T07:22:10;15.87;;;11.77;;
10851;SDS011;5479;52.046;6.314;2023-04-24T07:24:43;17.00;;;12.30;;
10851;SDS011;5479;52.046;6.314;2023-04-24T07:27:13;15.87;;;12.90;;
10851;SDS011;5479;52.046;6.314;2023-04-24T07:29:41;16.97;;;12.80;;
10851;SDS011;5479;52.046;6.314;2023-04-24T07:32:11;16.13;;;12.60;;
10851;SDS011;5479;52.046;6.314;2023-04-24T07:34:41;15.87;;;12.07;;
10851;SDS011;5479;52.046;6.314;2023-04-24T07:37:09;16.07;;;12.97;;
10851;SDS011;5479;52.046;6.314;2023-04-24T07:39:38;14.33;;;11.70;;
10851;SDS011;5479;52.046;6.314;2023-04-24T07:42:06;14.70;;;11.43;;
10851;SDS011;5479;52.046;6.314;2023-04-24T07:44:34;15.30;;;10.80;;
10851;SDS011;5479;52.046;6.314;2023-04-24T07:47:02;12.37;;;9.77;;
10851;SDS011;5479;52.046;6.314;2023-04-24T07:49:33;12.17;;;9.57;;
10851;SDS011;5479;52.046;6.314;2023-04-24T07:52:02;12.07;;;9.70;;
10851;SDS011;5479;52.046;6.314;2023-04-24T07:54:31;11.90;;;9.00;;
10851;SDS011;5479;52.046;6.314;2023-04-24T07:56:59;11.23;;;8.40;;
10851;SDS011;5479;52.046;6.314;2023-04-24T07:59:29;10.33;;;7.83;;
10851;SDS011;5479;52.046;6.314;2023-04-24T08:01:59;9.27;;;7.17;;
10851;SDS011;5479;52.046;6.314;2023-04-24T08:04:27;8.87;;;6.13;;
10851;SDS011;5479;52.046;6.314;2023-04-24T08:06:57;7.67;;;4.97;;
10851;SDS011;5479;52.046;6.314;2023-04-24T08:09:26;7.17;;;4.33;;
10851;SDS011;5479;52.046;6.314;2023-04-24T08:11:54;6.40;;;4.23;;
10851;SDS011;5479;52.046;6.314;2023-04-24T08:14:22;5.70;;;3.80;;
10851;SDS011;5479;52.046;6.314;2023-04-24T08:16:51;4.63;;;3.10;;
10851;SDS011;5479;52.046;6.314;2023-04-24T08:19:21;5.13;;;3.00;;
10851;SDS011;5479;52.046;6.314;2023-04-24T08:21:51;5.23;;;3.13;;
10851;SDS011;5479;52.046;6.314;2023-04-24T08:24:22;5.33;;;3.10;;
10851;SDS011;5479;52.046;6.314;2023-04-24T08:26:53;4.60;;;2.63;;
10851;SDS011;5479;52.046;6.314;2023-04-24T08:29:23;5.33;;;2.60;;
10851;SDS011;5479;52.046;6.314;2023-04-24T08:31:57;4.50;;;2.80;;
10851;SDS011;5479;52.046;6.314;2023-04-24T08:34:25;6.43;;;3.70;;
10851;SDS011;5479;52.046;6.314;2023-04-24T08:36:53;7.13;;;4.37;;
10851;SDS011;5479;52.046;6.314;2023-04-24T08:39:22;7.70;;;5.17;;
10851;SDS011;5479;52.046;6.314;2023-04-24T08:41:50;8.30;;;6.00;;
10851;SDS011;5479;52.046;6.314;2023-04-24T08:44:21;11.17;;;7.83;;
10851;SDS011;5479;52.046;6.314;2023-04-24T08:46:56;10.67;;;7.77;;
10851;SDS011;5479;52.046;6.314;2023-04-24T08:49:27;10.80;;;7.80;;
10851;SDS011;5479;52.046;6.314;2023-04-24T08:52:00;11.40;;;8.70;;
10851;SDS011;5479;52.046;6.314;2023-04-24T08:54:29;11.90;;;8.47;;
10851;SDS011;5479;52.046;6.314;2023-04-24T08:57:01;11.57;;;8.47;;
10851;SDS011;5479;52.046;6.314;2023-04-24T08:59:32;12.30;;;8.87;;
10851;SDS011;5479;52.046;6.314;2023-04-24T09:02:02;12.17;;;8.93;;
10851;SDS011;5479;52.046;6.314;2023-04-24T09:04:31;11.73;;;8.70;;
10851;SDS011;5479;52.046;6.314;2023-04-24T09:07:03;11.73;;;8.20;;
10851;SDS011;5479;52.046;6.314;2023-04-24T09:09:34;10.77;;;8.37;;
10851;SDS011;5479;52.046;6.314;2023-04-24T09:12:09;13.73;;;8.77;;
10851;SDS011;5479;52.046;6.314;2023-04-24T09:14:42;11.27;;;8.07;;
10851;SDS011;5479;52.046;6.314;2023-04-24T09:17:11;14.17;;;8.40;;
10851;SDS011;5479;52.046;6.314;2023-04-24T09:19:41;12.63;;;8.87;;
10851;SDS011;5479;52.046;6.314;2023-04-24T09:22:09;13.50;;;9.57;;
10851;SDS011;5479;52.046;6.314;2023-04-24T09:24:37;13.47;;;9.07;;
10851;SDS011;5479;52.046;6.314;2023-04-24T09:27:10;13.27;;;9.23;;
10851;SDS011;5479;52.046;6.314;2023-04-24T09:29:39;12.70;;;8.90;;
10851;SDS011;5479;52.046;6.314;2023-04-24T09:32:25;12.53;;;8.73;;
10851;SDS011;5479;52.046;6.314;2023-04-24T09:35:06;10.87;;;8.47;;
10851;SDS011;5479;52.046;6.314;2023-04-24T09:37:42;11.70;;;8.90;;
10851;SDS011;5479;52.046;6.314;2023-04-24T09:40:27;12.30;;;8.33;;
10851;SDS011;5479;52.046;6.314;2023-04-24T09:42:56;9.47;;;7.10;;
10851;SDS011;5479;52.046;6.314;2023-04-24T09:45:28;10.50;;;6.53;;
10851;SDS011;5479;52.046;6.314;2023-04-24T09:48:02;11.40;;;6.83;;
10851;SDS011;5479;52.046;6.314;2023-04-24T09:50:32;10.27;;;5.50;;
10851;SDS011;5479;52.046;6.314;2023-04-24T09:53:01;10.40;;;6.00;;
10851;SDS011;5479;52.046;6.314;2023-04-24T09:55:30;11.50;;;6.57;;
10851;SDS011;5479;52.046;6.314;2023-04-24T09:57:58;9.03;;;5.63;;
10851;SDS011;5479;52.046;6.314;2023-04-24T10:00:39;8.73;;;4.43;;
10851;SDS011;5479;52.046;6.314;2023-04-24T10:03:10;7.90;;;4.43;;
10851;SDS011;5479;52.046;6.314;2023-04-24T10:05:38;9.60;;;4.83;;
10851;SDS011;5479;52.046;6.314;2023-04-24T10:08:09;11.53;;;4.97;;
10851;SDS011;5479;52.046;6.314;2023-04-24T10:10:40;9.50;;;4.77;;
10851;SDS011;5479;52.046;6.314;2023-04-24T10:13:12;9.13;;;5.27;;
10851;SDS011;5479;52.046;6.314;2023-04-24T10:15:44;10.37;;;5.70;;
10851;SDS011;5479;52.046;6.314;2023-04-24T10:18:16;12.03;;;5.60;;
10851;SDS011;5479;52.046;6.314;2023-04-24T10:20:47;12.80;;;5.03;;
10851;SDS011;5479;52.046;6.314;2023-04-24T10:23:15;11.60;;;5.20;;
10851;SDS011;5479;52.046;6.314;2023-04-24T10:25:45;10.17;;;5.10;;
10851;SDS011;5479;52.046;6.314;2023-04-24T10:28:13;13.00;;;5.20;;
10851;SDS011;5479;52.046;6.314;2023-04-24T10:30:42;10.67;;;4.60;;
10851;SDS011;5479;52.046;6.314;2023-04-24T10:33:17;12.13;;;5.00;;
10851;SDS011;5479;52.046;6.314;2023-04-24T10:35:46;9.67;;;4.83;;
10851;SDS011;5479;52.046;6.314;2023-04-24T10:38:21;8.40;;;3.53;;
10851;SDS011;5479;52.046;6.314;2023-04-24T10:40:59;8.33;;;3.30;;
10851;SDS011;5479;52.046;6.314;2023-04-24T10:43:35;8.00;;;3.53;;
10851;SDS011;5479;52.046;6.314;2023-04-24T10:46:04;10.30;;;3.80;;
10851;SDS011;5479;52.046;6.314;2023-04-24T10:48:38;7.30;;;2.87;;
10851;SDS011;5479;52.046;6.314;2023-04-24T10:51:12;13.47;;;3.70;;
10851;SDS011;5479;52.046;6.314;2023-04-24T10:53:41;12.03;;;3.80;;
10851;SDS011;5479;52.046;6.314;2023-04-24T10:56:09;8.77;;;3.60;;
10851;SDS011;5479;52.046;6.314;2023-04-24T10:58:41;8.40;;;3.63;;
10851;SDS011;5479;52.046;6.314;2023-04-24T11:01:23;10.30;;;3.33;;
10851;SDS011;5479;52.046;6.314;2023-04-24T11:03:55;9.93;;;3.77;;
10851;SDS011;5479;52.046;6.314;2023-04-24T11:06:29;8.83;;;3.40;;
10851;SDS011;5479;52.046;6.314;2023-04-24T11:09:14;7.30;;;3.30;;
10851;SDS011;5479;52.046;6.314;2023-04-24T11:11:45;8.87;;;3.30;;
10851;SDS011;5479;52.046;6.314;2023-04-24T11:14:18;11.37;;;3.73;;
10851;SDS011;5479;52.046;6.314;2023-04-24T11:16:51;9.13;;;3.50;;
10851;SDS011;5479;52.046;6.314;2023-04-24T11:19:23;9.20;;;3.03;;
10851;SDS011;5479;52.046;6.314;2023-04-24T11:21:57;9.30;;;3.23;;
10851;SDS011;5479;52.046;6.314;2023-04-24T11:24:38;6.50;;;2.73;;
10851;SDS011;5479;52.046;6.314;2023-04-24T11:27:16;9.00;;;3.17;;
10851;SDS011;5479;52.046;6.314;2023-04-24T11:29:48;9.30;;;3.30;;
10851;SDS011;5479;52.046;6.314;2023-04-24T11:32:24;7.63;;;2.70;;
10851;SDS011;5479;52.046;6.314;2023-04-24T11:35:00;5.97;;;2.70;;
10851;SDS011;5479;52.046;6.314;2023-04-24T11:37:33;6.47;;;2.60;;
10851;SDS011;5479;52.046;6.314;2023-04-24T11:40:02;6.23;;;2.30;;
10851;SDS011;5479;52.046;6.314;2023-04-24T11:42:35;7.33;;;2.70;;
10851;SDS011;5479;52.046;6.314;2023-04-24T11:45:07;7.40;;;3.10;;
10851;SDS011;5479;52.046;6.314;2023-04-24T11:47:45;8.13;;;2.87;;
10851;SDS011;5479;52.046;6.314;2023-04-24T11:50:16;4.87;;;2.20;;
10851;SDS011;5479;52.046;6.314;2023-04-24T11:52:48;6.13;;;2.50;;
10851;SDS011;5479;52.046;6.314;2023-04-24T11:55:24;5.13;;;2.40;;
10851;SDS011;5479;52.046;6.314;2023-04-24T11:57:56;5.33;;;2.33;;
10851;SDS011;5479;52.046;6.314;2023-04-24T12:00:26;7.60;;;2.90;;
10851;SDS011;5479;52.046;6.314;2023-04-24T12:03:03;5.67;;;2.40;;
10851;SDS011;5479;52.046;6.314;2023-04-24T12:05:37;3.97;;;2.00;;
10851;SDS011;5479;52.046;6.314;2023-04-24T12:08:06;6.13;;;2.10;;
10851;SDS011;5479;52.046;6.314;2023-04-24T12:10:35;3.73;;;1.67;;
10851;SDS011;5479;52.046;6.314;2023-04-24T12:13:12;3.17;;;1.63;;
10851;SDS011;5479;52.046;6.314;2023-04-24T12:15:44;5.63;;;1.93;;
10851;SDS011;5479;52.046;6.314;2023-04-24T12:18:15;7.40;;;1.70;;
10851;SDS011;5479;52.046;6.314;2023-04-24T12:20:45;3.37;;;1.50;;
10851;SDS011;5479;52.046;6.314;2023-04-24T12:23:13;5.10;;;1.70;;
10851;SDS011;5479;52.046;6.314;2023-04-24T12:25:45;5.77;;;1.60;;
10851;SDS011;5479;52.046;6.314;2023-04-24T12:28:13;3.37;;;1.50;;
10851;SDS011;5479;52.046;6.314;2023-04-24T12:30:43;3.80;;;1.50;;
10851;SDS011;5479;52.046;6.314;2023-04-24T12:33:17;2.80;;;1.43;;
10851;SDS011;5479;52.046;6.314;2023-04-24T12:35:51;4.27;;;1.40;;
10851;SDS011;5479;52.046;6.314;2023-04-24T12:38:21;4.60;;;1.60;;
10851;SDS011;5479;52.046;6.314;2023-04-24T12:41:01;3.27;;;1.80;;
10851;SDS011;5479;52.046;6.314;2023-04-24T12:43:33;3.20;;;1.60;;
10851;SDS011;5479;52.046;6.314;2023-04-24T12:46:04;5.27;;;2.10;;
10851;SDS011;5479;52.046;6.314;2023-04-24T12:48:32;5.40;;;1.97;;
10851;SDS011;5479;52.046;6.314;2023-04-24T12:51:03;2.80;;;1.37;;
10851;SDS011;5479;52.046;6.314;2023-04-24T12:53:34;3.60;;;1.57;;
10851;SDS011;5479;52.046;6.314;2023-04-24T12:56:03;4.77;;;1.50;;
10851;SDS011;5479;52.046;6.314;2023-04-24T12:58:32;3.30;;;1.60;;
10851;SDS011;5479;52.046;6.314;2023-04-24T13:01:03;4.00;;;1.50;;
10851;SDS011;5479;52.046;6.314;2023-04-24T13:03:31;3.70;;;1.60;;
10851;SDS011;5479;52.046;6.314;2023-04-24T13:06:00;3.37;;;1.60;;
10851;SDS011;5479;52.046;6.314;2023-04-24T13:08:31;4.70;;;1.60;;
10851;SDS011;5479;52.046;6.314;2023-04-24T13:10:59;3.90;;;1.70;;
10851;SDS011;5479;52.046;6.314;2023-04-24T13:13:28;2.90;;;1.50;;
10851;SDS011;5479;52.046;6.314;2023-04-24T13:15:56;3.60;;;1.60;;
10851;SDS011;5479;52.046;6.314;2023-04-24T13:18:25;3.87;;;1.57;;
10851;SDS011;5479;52.046;6.314;2023-04-24T13:20:53;3.57;;;1.47;;
10851;SDS011;5479;52.046;6.314;2023-04-24T13:23:21;5.53;;;1.70;;
10851;SDS011;5479;52.046;6.314;2023-04-24T13:25:51;3.83;;;1.47;;
10851;SDS011;5479;52.046;6.314;2023-04-24T13:28:21;3.00;;;1.40;;
10851;SDS011;5479;52.046;6.314;2023-04-24T13:30:49;3.90;;;1.40;;
10851;SDS011;5479;52.046;6.314;2023-04-24T13:33:17;2.77;;;1.40;;
10851;SDS011;5479;52.046;6.314;2023-04-24T13:35:45;2.70;;;1.33;;
10851;SDS011;5479;52.046;6.314;2023-04-24T13:38:14;3.70;;;1.17;;
10851;SDS011;5479;52.046;6.314;2023-04-24T13:40:43;3.40;;;1.27;;
10851;SDS011;5479;52.046;6.314;2023-04-24T13:43:13;3.43;;;1.30;;
10851;SDS011;5479;52.046;6.314;2023-04-24T13:45:42;3.57;;;1.20;;
10851;SDS011;5479;52.046;6.314;2023-04-24T13:48:11;3.27;;;1.50;;
10851;SDS011;5479;52.046;6.314;2023-04-24T13:50:44;3.60;;;1.40;;
10851;SDS011;5479;52.046;6.314;2023-04-24T13:53:14;3.80;;;1.50;;
10851;SDS011;5479;52.046;6.314;2023-04-24T13:55:42;3.57;;;1.20;;
10851;SDS011;5479;52.046;6.314;2023-04-24T13:58:13;3.37;;;1.30;;
10851;SDS011;5479;52.046;6.314;2023-04-24T14:00:42;2.77;;;1.40;;
10851;SDS011;5479;52.046;6.314;2023-04-24T14:03:12;3.50;;;1.37;;
10851;SDS011;5479;52.046;6.314;2023-04-24T14:05:40;5.57;;;1.80;;
10851;SDS011;5479;52.046;6.314;2023-04-24T14:08:08;5.00;;;1.70;;
10851;SDS011;5479;52.046;6.314;2023-04-24T14:10:36;4.27;;;1.70;;
10851;SDS011;5479;52.046;6.314;2023-04-24T14:13:04;9.13;;;6.10;;
10851;SDS011;5479;52.046;6.314;2023-04-24T14:15:37;7.67;;;3.10;;
10851;SDS011;5479;52.046;6.314;2023-04-24T14:18:05;4.07;;;1.80;;
10851;SDS011;5479;52.046;6.314;2023-04-24T14:20:33;5.87;;;1.70;;
10851;SDS011;5479;52.046;6.314;2023-04-24T14:23:03;6.40;;;2.13;;
10851;SDS011;5479;52.046;6.314;2023-04-24T14:25:33;5.43;;;2.67;;
10851;SDS011;5479;52.046;6.314;2023-04-24T14:28:03;5.10;;;1.90;;
10851;SDS011;5479;52.046;6.314;2023-04-24T14:30:30;5.67;;;2.37;;
10851;SDS011;5479;52.046;6.314;2023-04-24T14:32:59;8.30;;;2.27;;
10851;SDS011;5479;52.046;6.314;2023-04-24T14:35:28;7.00;;;2.23;;
10851;SDS011;5479;52.046;6.314;2023-04-24T14:37:57;6.33;;;2.30;;
10851;SDS011;5479;52.046;6.314;2023-04-24T14:40:26;6.30;;;2.70;;
10851;SDS011;5479;52.046;6.314;2023-04-24T14:42:54;8.27;;;2.50;;
10851;SDS011;5479;52.046;6.314;2023-04-24T14:45:26;9.23;;;2.83;;
10851;SDS011;5479;52.046;6.314;2023-04-24T14:48:02;7.90;;;2.77;;
10851;SDS011;5479;52.046;6.314;2023-04-24T14:50:32;6.07;;;2.30;;
10851;SDS011;5479;52.046;6.314;2023-04-24T14:53:01;7.63;;;2.80;;
10851;SDS011;5479;52.046;6.314;2023-04-24T14:55:29;8.60;;;2.50;;
10851;SDS011;5479;52.046;6.314;2023-04-24T14:58:03;8.43;;;2.67;;
10851;SDS011;5479;52.046;6.314;2023-04-24T15:00:31;9.00;;;2.40;;
10851;SDS011;5479;52.046;6.314;2023-04-24T15:03:00;7.00;;;2.50;;